createdAt,value
2022-09-29T00:00:23.032Z,10.69
2022-09-29T00:02:50.176Z,10.71
2022-09-29T00:05:17.386Z,10.70
2022-09-29T00:07:44.692Z,10.69
2022-09-29T00:10:11.970Z,10.68
2022-09-29T00:12:40.122Z,10.68
2022-09-29T00:15:07.649Z,10.63
2022-09-29T00:17:35.082Z,10.59
2022-09-29T00:20:02.433Z,10.60
2022-09-29T00:22:30.387Z,10.59
2022-09-29T00:24:57.818Z,10.56
2022-09-29T00:27:25.284Z,10.53
2022-09-29T00:29:52.369Z,10.49
2022-09-29T00:32:19.528Z,10.48
2022-09-29T00:34:47.149Z,10.46
2022-09-29T00:37:14.590Z,10.21
2022-09-29T00:39:41.818Z,10.43
2022-09-29T00:42:10.786Z,10.46
2022-09-29T00:44:56.505Z,10.54
2022-09-29T00:47:26.160Z,10.55
2022-09-29T00:49:57.159Z,10.52
2022-09-29T00:52:27.559Z,10.51
2022-09-29T00:55:00.486Z,10.50
2022-09-29T00:57:29.748Z,10.52
2022-09-29T01:00:02.972Z,10.51
2022-09-29T01:02:32.370Z,10.53
2022-09-29T01:05:00.889Z,10.52
2022-09-29T01:07:28.643Z,10.53
2022-09-29T01:09:57.437Z,10.51
2022-09-29T01:12:24.681Z,10.51
2022-09-29T01:14:53.495Z,10.54
2022-09-29T01:17:21.105Z,10.56
2022-09-29T01:20:07.234Z,10.53
2022-09-29T01:22:54.780Z,10.51
2022-09-29T01:25:22.086Z,10.50
2022-09-29T01:28:01.844Z,10.49
2022-09-29T01:30:55.396Z,10.46
2022-09-29T01:33:22.543Z,10.49
2022-09-29T01:35:50.150Z,10.51
2022-09-29T01:38:28.115Z,10.56
2022-09-29T01:41:01.588Z,10.55
2022-09-29T01:43:34.911Z,10.55
2022-09-29T01:46:28.158Z,10.52
2022-09-29T01:48:56.995Z,10.45
2022-09-29T01:51:28.665Z,10.41
2022-09-29T01:53:58.209Z,10.43
2022-09-29T01:56:32.705Z,10.41
2022-09-29T01:59:03.117Z,10.40
2022-09-29T02:01:34.591Z,10.43
2022-09-29T02:04:05.212Z,10.46
2022-09-29T02:06:37.717Z,10.46
2022-09-29T02:09:08.866Z,10.45
2022-09-29T02:11:40.284Z,10.43
2022-09-29T02:14:19.910Z,10.41
2022-09-29T02:16:49.076Z,10.39
2022-09-29T02:19:19.054Z,10.39
2022-09-29T02:21:46.785Z,10.38
2022-09-29T02:24:14.878Z,10.07
2022-09-29T02:26:45.374Z,10.41
2022-09-29T02:29:12.908Z,10.38
2022-09-29T02:31:40.696Z,10.34
2022-09-29T02:34:09.684Z,10.35
2022-09-29T02:37:01.805Z,10.36
2022-09-29T02:39:47.919Z,10.35
2022-09-29T02:42:39.652Z,10.40
2022-09-29T02:45:12.914Z,10.39
2022-09-29T02:47:40.736Z,10.36
2022-09-29T02:50:20.538Z,10.35
2022-09-29T02:52:55.433Z,10.29
2022-09-29T02:55:41.028Z,10.28
2022-09-29T02:58:15.895Z,10.29
2022-09-29T03:00:44.685Z,10.32
2022-09-29T03:03:13.046Z,10.36
2022-09-29T03:05:40.419Z,10.38
2022-09-29T03:08:07.678Z,10.36
2022-09-29T03:10:34.987Z,10.39
2022-09-29T03:13:02.386Z,10.38
2022-09-29T03:15:30.011Z,10.37
2022-09-29T03:17:57.674Z,10.34
2022-09-29T03:20:26.825Z,10.35
2022-09-29T03:22:57.677Z,10.34
2022-09-29T03:25:25.564Z,10.33
2022-09-29T03:27:53.497Z,10.29
2022-09-29T03:30:23.013Z,10.27
2022-09-29T03:32:50.233Z,10.30
2022-09-29T03:35:17.739Z,10.31
2022-09-29T03:37:45.321Z,10.34
2022-09-29T03:40:12.727Z,10.34
2022-09-29T03:42:40.379Z,10.34
2022-09-29T03:45:07.685Z,10.34
2022-09-29T03:47:35.013Z,10.34
2022-09-29T03:50:02.418Z,10.33
2022-09-29T03:52:30.314Z,10.33
2022-09-29T03:54:57.595Z,10.33
2022-09-29T03:57:25.072Z,10.37
2022-09-29T03:59:53.432Z,10.42
2022-09-29T04:02:21.167Z,10.44
2022-09-29T04:04:48.605Z,10.46
2022-09-29T04:07:15.888Z,10.44
2022-09-29T04:09:43.571Z,10.47
2022-09-29T04:12:11.034Z,10.50
2022-09-29T04:14:38.273Z,10.55
2022-09-29T04:17:05.817Z,10.63
2022-09-29T04:19:33.259Z,10.66
2022-09-29T04:22:00.666Z,10.70
2022-09-29T04:24:27.977Z,10.73
2022-09-29T04:26:55.605Z,10.75
2022-09-29T04:29:23.403Z,10.79
2022-09-29T04:31:50.798Z,10.82
2022-09-29T04:34:19.233Z,10.83
2022-09-29T04:36:46.511Z,10.84
2022-09-29T04:39:14.491Z,10.84
2022-09-29T04:41:41.967Z,10.84
2022-09-29T04:44:09.396Z,10.90
2022-09-29T04:46:36.601Z,11.02
2022-09-29T04:49:04.135Z,11.07
2022-09-29T04:51:31.798Z,11.10
2022-09-29T04:53:59.358Z,11.17
2022-09-29T04:56:31.643Z,11.22
2022-09-29T04:58:59.385Z,11.26
2022-09-29T05:01:27.195Z,11.19
2022-09-29T05:03:54.738Z,11.20
2022-09-29T05:06:21.977Z,11.26
2022-09-29T05:08:49.457Z,11.29
2022-09-29T05:11:17.320Z,11.29
2022-09-29T05:13:44.530Z,11.32
2022-09-29T05:16:12.053Z,11.40
2022-09-29T05:18:40.280Z,11.38
2022-09-29T05:21:27.025Z,11.39
2022-09-29T05:23:56.080Z,11.34
2022-09-29T05:26:23.609Z,11.30
2022-09-29T05:28:50.956Z,11.14
2022-09-29T05:31:18.637Z,10.88
2022-09-29T05:33:46.216Z,10.73
2022-09-29T05:36:14.138Z,10.68
2022-09-29T05:38:41.399Z,10.66
2022-09-29T05:41:11.182Z,10.60
2022-09-29T05:43:39.582Z,10.68
2022-09-29T05:46:08.088Z,10.76
2022-09-29T05:48:35.431Z,10.82
2022-09-29T05:51:13.689Z,10.92
2022-09-29T05:53:41.664Z,11.05
2022-09-29T05:56:10.986Z,11.21
2022-09-29T05:58:38.849Z,11.32
2022-09-29T06:01:07.208Z,11.34
2022-09-29T06:03:35.614Z,11.33
2022-09-29T06:06:06.640Z,11.31
2022-09-29T06:08:34.278Z,11.22
2022-09-29T06:11:12.766Z,11.00
2022-09-29T06:13:40.605Z,11.02
2022-09-29T06:16:08.440Z,11.10
2022-09-29T06:18:36.154Z,11.17
2022-09-29T06:21:04.499Z,11.13
2022-09-29T06:23:31.887Z,11.17
2022-09-29T06:26:00.166Z,11.27
2022-09-29T06:28:27.730Z,11.45
2022-09-29T06:31:02.240Z,11.51
2022-09-29T06:33:30.189Z,11.59
2022-09-29T06:36:16.712Z,11.74
2022-09-29T06:38:44.511Z,11.80
2022-09-29T06:41:11.931Z,12.02
2022-09-29T06:43:39.989Z,12.11
2022-09-29T06:46:07.413Z,12.23
2022-09-29T06:48:34.542Z,12.34
2022-09-29T06:51:09.245Z,12.25
2022-09-29T06:53:39.086Z,12.28
2022-09-29T06:56:07.215Z,12.16
2022-09-29T06:58:35.434Z,11.98
2022-09-29T07:01:03.623Z,11.70
2022-09-29T07:03:30.897Z,11.57
2022-09-29T07:08:46.001Z,11.65
2022-09-29T07:11:13.842Z,11.59
2022-09-29T07:13:40.917Z,11.63
2022-09-29T07:16:09.981Z,11.61
2022-09-29T07:18:38.531Z,11.81
2022-09-29T07:21:06.317Z,11.73
2022-09-29T07:23:34.107Z,11.76
2022-09-29T07:26:01.456Z,11.69
2022-09-29T07:28:29.685Z,11.85
2022-09-29T07:31:13.492Z,11.91
2022-09-29T07:33:42.228Z,12.03
2022-09-29T07:36:09.832Z,12.13
2022-09-29T07:38:37.166Z,11.99
2022-09-29T07:41:05.512Z,11.93
2022-09-29T07:43:33.402Z,12.26
2022-09-29T07:46:00.926Z,12.90
2022-09-29T07:48:31.694Z,13.31
2022-09-29T07:51:02.993Z,13.61
2022-09-29T07:53:31.085Z,13.70
2022-09-29T07:56:09.171Z,13.90
2022-09-29T07:58:37.733Z,14.65
2022-09-29T08:01:06.857Z,15.20
2022-09-29T08:03:34.452Z,14.86
2022-09-29T08:06:01.885Z,14.38
2022-09-29T08:08:29.278Z,14.20
2022-09-29T08:11:06.977Z,13.71
2022-09-29T08:13:36.185Z,13.41
2022-09-29T08:16:04.890Z,13.46
2022-09-29T08:18:32.651Z,13.47
2022-09-29T08:21:03.050Z,13.44
2022-09-29T08:23:34.565Z,13.40
2022-09-29T08:26:03.229Z,13.40
2022-09-29T08:28:32.670Z,13.44
2022-09-29T08:31:08.394Z,13.38
2022-09-29T08:33:35.899Z,13.39
2022-09-29T08:36:06.410Z,13.46
2022-09-29T08:38:34.057Z,13.49
2022-09-29T08:41:03.712Z,13.81
2022-09-29T08:43:38.805Z,15.40
2022-09-29T08:46:08.299Z,16.50
2022-09-29T08:48:46.085Z,16.47
2022-09-29T08:51:42.738Z,16.03
2022-09-29T08:54:36.068Z,15.53
2022-09-29T08:57:06.773Z,14.95
2022-09-29T08:59:33.914Z,14.55
2022-09-29T09:02:19.918Z,14.28
2022-09-29T09:05:01.927Z,13.95
2022-09-29T09:08:03.303Z,13.66
2022-09-29T09:10:34.650Z,13.46
2022-09-29T09:13:20.654Z,13.31
2022-09-29T09:15:51.652Z,13.25
2022-09-29T09:18:28.328Z,13.18
2022-09-29T09:21:09.217Z,13.06
2022-09-29T09:23:59.890Z,12.99
2022-09-29T09:26:34.273Z,12.86
2022-09-29T09:29:05.991Z,12.99
2022-09-29T09:31:36.973Z,13.10
2022-09-29T09:34:40.293Z,13.19
2022-09-29T09:37:22.411Z,13.27
2022-09-29T09:39:58.092Z,13.33
2022-09-29T09:42:27.834Z,13.58
2022-09-29T09:44:59.682Z,13.84
2022-09-29T09:47:29.213Z,14.02
2022-09-29T09:50:06.904Z,13.73
2022-09-29T09:52:39.488Z,14.31
2022-09-29T09:55:11.313Z,14.46
2022-09-29T09:57:41.644Z,14.44
2022-09-29T10:00:14.915Z,14.09
2022-09-29T10:02:46.839Z,13.93
2022-09-29T10:05:15.612Z,13.93
2022-09-29T10:07:43.330Z,13.81
2022-09-29T10:10:16.044Z,13.79
2022-09-29T10:12:43.554Z,13.78
2022-09-29T10:15:23.236Z,13.80
2022-09-29T10:18:01.814Z,13.80
2022-09-29T10:20:33.136Z,13.85
2022-09-29T10:23:18.917Z,13.82
2022-09-29T10:25:57.941Z,13.78
2022-09-29T10:28:26.508Z,13.80
2022-09-29T10:30:55.304Z,13.81
2022-09-29T10:33:24.913Z,13.84
2022-09-29T10:36:03.399Z,13.91
2022-09-29T10:38:30.581Z,13.95
2022-09-29T10:41:04.959Z,14.00
2022-09-29T10:43:35.439Z,14.07
2022-09-29T10:46:02.997Z,14.11
2022-09-29T10:48:30.366Z,13.95
2022-09-29T10:53:39.005Z,14.07
2022-09-29T10:56:21.303Z,14.13
2022-09-29T10:59:03.272Z,14.16
2022-09-29T11:01:33.615Z,14.03
2022-09-29T11:04:06.544Z,13.93
2022-09-29T11:06:43.578Z,14.03
2022-09-29T11:09:14.389Z,14.27
2022-09-29T11:11:48.149Z,14.47
2022-09-29T11:14:29.912Z,14.68
2022-09-29T11:16:58.637Z,14.87
2022-09-29T11:19:27.010Z,14.89
2022-09-29T11:22:04.020Z,15.03
2022-09-29T11:24:43.161Z,15.00
2022-09-29T11:27:11.521Z,15.01
2022-09-29T11:29:50.650Z,15.07
2022-09-29T11:32:18.545Z,15.28
2022-09-29T11:35:06.294Z,15.51
2022-09-29T11:37:44.424Z,15.62
2022-09-29T11:40:15.756Z,15.71
2022-09-29T11:43:01.985Z,15.90
2022-09-29T11:45:42.289Z,15.80
2022-09-29T11:48:15.481Z,15.60
2022-09-29T11:50:48.661Z,15.45
2022-09-29T11:53:15.962Z,15.11
2022-09-29T11:55:49.394Z,14.98
2022-09-29T11:58:32.127Z,14.98
2022-09-29T12:01:17.542Z,14.91
2022-09-29T12:03:56.178Z,14.80
2022-09-29T12:06:43.961Z,14.58
2022-09-29T12:09:17.744Z,14.58
2022-09-29T12:12:05.226Z,14.93
2022-09-29T12:14:56.367Z,15.37
2022-09-29T12:17:25.306Z,15.55
2022-09-29T12:19:56.513Z,15.61
2022-09-29T12:22:24.075Z,15.66
2022-09-29T12:24:54.770Z,15.66
2022-09-29T12:27:40.254Z,15.83
2022-09-29T12:30:11.153Z,15.87
2022-09-29T12:32:41.695Z,15.85
2022-09-29T12:35:12.715Z,15.72
2022-09-29T12:37:56.766Z,15.76
2022-09-29T12:40:36.371Z,15.97
2022-09-29T12:43:12.646Z,15.94
2022-09-29T12:45:46.568Z,15.66
2022-09-29T12:48:20.916Z,14.96
2022-09-29T12:51:14.611Z,15.05
2022-09-29T12:53:48.047Z,14.81
2022-09-29T12:56:41.909Z,14.71
2022-09-29T12:59:15.022Z,14.80
2022-09-29T13:01:42.367Z,14.92
2022-09-29T13:04:19.167Z,15.04
2022-09-29T13:06:46.633Z,15.13
2022-09-29T13:09:20.151Z,15.16
2022-09-29T13:11:59.893Z,15.22
2022-09-29T13:14:27.343Z,15.24
2022-09-29T13:17:09.386Z,15.28
2022-09-29T13:19:58.274Z,15.28
2022-09-29T13:22:26.747Z,15.25
2022-09-29T13:24:54.608Z,15.28
2022-09-29T13:27:27.717Z,15.27
2022-09-29T13:30:20.160Z,15.13
2022-09-29T13:33:14.827Z,15.08
2022-09-29T13:36:01.161Z,15.07
2022-09-29T13:38:35.910Z,15.05
2022-09-29T13:41:21.942Z,15.06
2022-09-29T13:43:52.533Z,15.09
2022-09-29T13:46:27.141Z,15.12
2022-09-29T13:49:02.365Z,15.13
2022-09-29T13:51:52.742Z,15.13
2022-09-29T13:54:21.673Z,15.13
2022-09-29T13:56:52.912Z,15.15
2022-09-29T13:59:27.373Z,15.20
2022-09-29T14:01:55.940Z,15.21
2022-09-29T14:04:38.041Z,15.21
2022-09-29T14:07:17.201Z,15.17
2022-09-29T14:12:31.217Z,15.03
2022-09-29T14:15:01.208Z,14.99
2022-09-29T14:17:44.350Z,14.89
2022-09-29T14:20:20.146Z,14.74
2022-09-29T14:22:52.802Z,14.53
2022-09-29T14:25:20.690Z,14.40
2022-09-29T14:28:01.540Z,14.39
2022-09-29T14:30:33.046Z,14.45
2022-09-29T14:33:12.025Z,14.46
2022-09-29T14:35:42.028Z,14.35
2022-09-29T14:38:17.753Z,14.23
2022-09-29T14:41:06.240Z,14.07
2022-09-29T14:43:35.511Z,13.95
2022-09-29T14:46:28.273Z,13.89
2022-09-29T14:49:49.385Z,13.76
2022-09-29T14:52:29.136Z,13.45
2022-09-29T14:55:19.221Z,13.28
2022-09-29T14:57:50.327Z,13.14
2022-09-29T15:00:23.011Z,13.00
2022-09-29T15:03:00.114Z,12.90
2022-09-29T15:05:33.839Z,12.82
2022-09-29T15:08:05.973Z,12.76
2022-09-29T15:10:47.432Z,12.64
2022-09-29T15:13:40.483Z,12.53
2022-09-29T15:16:19.114Z,12.43
2022-09-29T15:19:07.338Z,12.36
2022-09-29T15:21:37.446Z,12.25
2022-09-29T15:24:13.714Z,12.21
2022-09-29T15:26:41.558Z,12.15
2022-09-29T15:29:17.313Z,12.11
2022-09-29T15:31:48.174Z,12.06
2022-09-29T15:34:34.667Z,12.02
2022-09-29T15:37:08.672Z,12.00
2022-09-29T15:39:45.574Z,11.97
2022-09-29T15:42:17.749Z,11.94
2022-09-29T15:45:01.874Z,11.90
2022-09-29T15:47:41.024Z,11.88
2022-09-29T15:50:19.556Z,11.83
2022-09-29T15:52:47.548Z,11.79
2022-09-29T15:55:17.213Z,11.75
2022-09-29T15:57:55.154Z,11.70
2022-09-29T16:00:28.354Z,11.64
2022-09-29T16:03:06.017Z,11.60
2022-09-29T16:05:43.108Z,11.60
2022-09-29T16:08:20.681Z,11.60
2022-09-29T16:10:55.217Z,11.58
2022-09-29T16:13:27.374Z,11.56
2022-09-29T16:16:00.014Z,11.54
2022-09-29T16:18:33.085Z,11.54
2022-09-29T16:21:09.460Z,11.56
2022-09-29T16:23:43.468Z,11.58
2022-09-29T16:26:13.891Z,11.60
2022-09-29T16:29:01.551Z,11.64
2022-09-29T16:31:30.589Z,11.68
2022-09-29T16:34:03.289Z,11.73
2022-09-29T16:36:36.988Z,11.74
2022-09-29T16:39:05.693Z,11.76
2022-09-29T16:41:38.358Z,11.73
2022-09-29T16:44:21.769Z,11.69
2022-09-29T16:46:54.424Z,11.69
2022-09-29T16:49:36.653Z,11.70
2022-09-29T16:52:18.093Z,11.72
2022-09-29T16:54:46.845Z,11.74
2022-09-29T16:57:25.683Z,11.76
2022-09-29T16:59:57.214Z,11.77
2022-09-29T17:02:25.142Z,11.79
2022-09-29T17:04:52.912Z,11.78
2022-09-29T17:07:23.928Z,11.76
2022-09-29T17:09:56.114Z,11.75
2022-09-29T17:12:24.550Z,11.75
2022-09-29T17:14:51.808Z,11.74
2022-09-29T17:17:22.523Z,11.73
2022-09-29T17:19:50.985Z,11.68
2022-09-29T17:22:21.257Z,11.63
2022-09-29T17:24:48.787Z,11.59
2022-09-29T17:27:34.768Z,11.56
2022-09-29T17:30:03.388Z,11.50
2022-09-29T17:32:30.705Z,11.43
2022-09-29T17:34:58.656Z,11.35
2022-09-29T17:37:26.561Z,11.31
2022-09-29T17:39:54.154Z,11.28
2022-09-29T17:42:27.236Z,11.27
2022-09-29T17:44:54.547Z,11.28
2022-09-29T17:47:28.540Z,11.29
2022-09-29T17:49:57.121Z,11.27
2022-09-29T17:52:24.330Z,11.25
2022-09-29T17:54:51.924Z,11.23
2022-09-29T17:57:22.285Z,11.20
2022-09-29T17:59:49.637Z,11.17
2022-09-29T18:02:17.795Z,11.14
2022-09-29T18:04:48.586Z,11.12
2022-09-29T18:07:16.778Z,11.09
2022-09-29T18:09:45.156Z,10.76
2022-09-29T18:12:12.973Z,11.07
2022-09-29T18:14:40.118Z,11.07
2022-09-29T18:17:07.211Z,11.09
2022-09-29T18:19:36.034Z,11.11
2022-09-29T18:22:06.289Z,11.14
2022-09-29T18:24:34.183Z,11.15
2022-09-29T18:27:01.724Z,11.16
2022-09-29T18:29:31.601Z,11.18
2022-09-29T18:31:59.338Z,11.19
2022-09-29T18:34:27.090Z,11.22
2022-09-29T18:36:54.150Z,11.25
2022-09-29T18:39:21.466Z,11.26
2022-09-29T18:41:49.093Z,11.28
2022-09-29T18:44:18.198Z,11.28
2022-09-29T18:46:45.682Z,11.28
2022-09-29T18:49:14.431Z,11.26
2022-09-29T18:51:41.839Z,11.23
2022-09-29T18:54:09.240Z,11.23
2022-09-29T18:56:36.588Z,11.25
2022-09-29T18:59:06.886Z,11.27
2022-09-29T19:01:34.045Z,11.29
2022-09-29T19:04:01.628Z,11.30
2022-09-29T19:06:28.974Z,11.31
2022-09-29T19:08:56.531Z,11.31
2022-09-29T19:11:26.068Z,11.29
2022-09-29T19:13:56.410Z,11.28
2022-09-29T19:16:24.212Z,11.28
2022-09-29T19:18:51.467Z,11.28
2022-09-29T19:21:18.826Z,11.29
2022-09-29T19:23:49.092Z,11.30
2022-09-29T19:26:17.898Z,11.31
2022-09-29T19:28:46.524Z,11.33
2022-09-29T19:31:15.833Z,11.33
2022-09-29T19:33:43.449Z,11.32
2022-09-29T19:36:14.051Z,11.30
2022-09-29T19:38:41.386Z,11.29
2022-09-29T19:41:16.994Z,11.27
2022-09-29T19:43:45.804Z,11.27
2022-09-29T19:46:13.872Z,11.26
2022-09-29T19:48:43.726Z,11.27
2022-09-29T19:51:32.126Z,11.29
2022-09-29T19:54:21.023Z,11.29
2022-09-29T19:56:49.519Z,11.26
2022-09-29T19:59:18.585Z,11.26
2022-09-29T20:01:46.254Z,11.27
2022-09-29T20:04:14.541Z,11.27
2022-09-29T20:06:42.266Z,11.22
2022-09-29T20:09:10.144Z,11.16
2022-09-29T20:11:38.086Z,11.11
2022-09-29T20:14:06.198Z,10.99
2022-09-29T20:16:34.641Z,10.94
2022-09-29T20:19:01.974Z,10.91
2022-09-29T20:21:29.490Z,10.84
2022-09-29T20:23:58.108Z,10.77
2022-09-29T20:26:26.018Z,10.72
2022-09-29T20:28:54.409Z,10.68
2022-09-29T20:31:23.648Z,10.63
2022-09-29T20:33:51.532Z,10.61
2022-09-29T20:36:18.981Z,10.59
2022-09-29T20:38:51.107Z,10.56
2022-09-29T20:41:18.302Z,10.52
2022-09-29T20:43:51.833Z,10.50
2022-09-29T20:46:19.558Z,10.48
2022-09-29T20:48:48.772Z,10.47
2022-09-29T20:51:16.572Z,10.45
2022-09-29T20:53:45.034Z,10.46
2022-09-29T20:56:19.015Z,10.48
2022-09-29T20:58:47.593Z,10.47
2022-09-29T21:01:17.917Z,10.40
2022-09-29T21:03:48.345Z,10.35
2022-09-29T21:06:16.112Z,10.28
2022-09-29T21:08:43.377Z,10.26
2022-09-29T21:11:10.673Z,10.22
2022-09-29T21:13:37.765Z,10.21
2022-09-29T21:16:05.491Z,10.20
2022-09-29T21:28:09.919Z,10.16
2022-09-29T21:40:13.476Z,10.51
2022-09-29T21:49:59.177Z,10.58
2022-09-29T21:53:08.897Z,10.56
2022-09-29T21:55:49.630Z,10.55
2022-09-29T21:58:29.289Z,10.53
2022-09-29T22:07:08.849Z,10.59
2022-09-29T22:10:00.650Z,10.64
2022-09-29T22:12:36.890Z,10.66
2022-09-29T22:21:18.550Z,10.59
2022-09-29T22:24:01.034Z,10.52
2022-09-29T22:27:03.437Z,10.47
2022-09-29T22:29:34.481Z,10.43
2022-09-29T22:32:18.204Z,10.43
2022-09-29T22:35:22.788Z,10.43
2022-09-29T22:44:31.748Z,10.50
2022-09-29T22:58:31.742Z,10.57
2022-09-29T23:01:12.453Z,10.59
2022-09-29T23:03:42.241Z,10.60
2022-09-29T23:06:44.148Z,10.62
2022-09-29T23:09:17.178Z,10.28
2022-09-29T23:12:00.835Z,10.67
2022-09-29T23:14:30.631Z,10.68
2022-09-29T23:20:35.915Z,10.63
2022-09-29T23:26:07.557Z,10.62
2022-09-29T23:31:59.949Z,10.59
2022-09-29T23:34:37.336Z,10.49
2022-09-29T23:44:29.153Z,10.45
2022-09-29T23:46:57.085Z,10.44
2022-09-29T23:49:26.127Z,10.47
2022-09-29T23:51:58.248Z,10.52
2022-09-29T23:54:26.867Z,10.51
2022-09-29T23:56:56.047Z,10.48
2022-09-29T23:59:23.649Z,10.40
